Terminal Aerodrome Forecast
Issued by NWS La Crosse, WI

Home | Current Version | Previous Version | Text Only | Print | Product List | Glossary On
Versions: 1 2 3 4 5 6 7 8 9 10 11 12 13 14 15 16 17 18 19 20 21 22 23 24 25 26 27 28 29 30 31 32
000
FTUS43 KARX 271725
TAFLSE
TAF
KLSE 271725Z 2718/2818 28007KT P6SM BKN200
     FM280200 VRB03KT P6SM BKN100
     FM280800 VRB03KT P6SM -SHRA BKN060
     FM281600 27008KT P6SM SCT080=

USA.gov is the U.S. government's official web portal to all federal, state and local government web resources and services.